createdAt,value
2022-10-29T00:01:24.717Z,6.90
2022-10-29T00:03:51.416Z,6.97
2022-10-29T00:06:18.132Z,7.53
2022-10-29T00:08:44.874Z,6.60
2022-10-29T00:11:20.068Z,7.20
2022-10-29T00:13:48.515Z,7.20
2022-10-29T00:16:18.279Z,6.95
2022-10-29T00:18:45.364Z,6.65
2022-10-29T00:21:15.245Z,7.05
2022-10-29T00:23:42.042Z,6.43
2022-10-29T00:26:09.152Z,7.55
2022-10-29T00:28:35.985Z,7.13
2022-10-29T00:31:21.411Z,6.72
2022-10-29T00:33:48.081Z,6.53
2022-10-29T00:36:17.551Z,6.35
2022-10-29T00:38:44.889Z,6.55
2022-10-29T00:41:14.872Z,6.72
2022-10-29T00:43:46.789Z,7.32
2022-10-29T00:46:45.712Z,6.57
2022-10-29T00:49:12.772Z,6.65
2022-10-29T00:51:39.799Z,6.50
2022-10-29T00:54:11.764Z,6.25
2022-10-29T00:56:43.006Z,6.85
2022-10-29T00:59:10.363Z,6.90
2022-10-29T01:01:38.342Z,6.18
2022-10-29T01:04:06.010Z,6.80
2022-10-29T01:06:33.515Z,6.97
2022-10-29T01:09:00.226Z,6.25
2022-10-29T01:11:43.636Z,6.90
2022-10-29T01:14:23.121Z,6.90
2022-10-29T01:17:17.921Z,7.35
2022-10-29T01:20:04.458Z,7.38
2022-10-29T01:23:08.127Z,7.13
2022-10-29T01:25:56.217Z,7.25
2022-10-29T01:28:32.054Z,6.90
2022-10-29T01:31:20.462Z,7.30
2022-10-29T01:34:11.482Z,7.40
2022-10-29T01:37:00.585Z,7.88
2022-10-29T01:39:57.801Z,7.25
2022-10-29T01:42:35.814Z,7.40
2022-10-29T01:45:31.888Z,7.43
2022-10-29T01:48:12.301Z,6.90
2022-10-29T01:50:42.392Z,7.50
2022-10-29T01:53:09.958Z,7.53
2022-10-29T01:55:36.977Z,7.72
2022-10-29T01:58:05.186Z,8.05
2022-10-29T02:00:54.963Z,7.97
2022-10-29T02:03:52.902Z,7.65
2022-10-29T02:06:28.604Z,7.85
2022-10-29T02:11:38.805Z,8.27
2022-10-29T02:14:17.784Z,8.10
2022-10-29T02:16:45.685Z,7.43
2022-10-29T02:19:12.554Z,7.60
2022-10-29T02:21:39.200Z,8.40
2022-10-29T02:24:06.612Z,7.43
2022-10-29T02:26:33.244Z,7.90
2022-10-29T02:28:59.971Z,7.90
2022-10-29T02:31:26.587Z,7.85
2022-10-29T02:33:53.207Z,7.97
2022-10-29T02:36:20.137Z,8.35
2022-10-29T02:38:46.796Z,8.65
2022-10-29T02:41:13.435Z,8.30
2022-10-29T02:43:41.168Z,8.63
2022-10-29T02:46:15.069Z,8.32
2022-10-29T02:48:43.229Z,8.85
2022-10-29T02:51:10.539Z,8.55
2022-10-29T02:53:41.387Z,9.10
2022-10-29T02:56:12.907Z,8.60
2022-10-29T02:58:43.219Z,9.27
2022-10-29T03:01:11.295Z,8.57
2022-10-29T03:03:37.956Z,9.13
2022-10-29T03:06:04.786Z,9.23
2022-10-29T03:08:31.474Z,9.63
2022-10-29T03:10:58.108Z,9.75
2022-10-29T03:13:24.772Z,9.35
2022-10-29T03:15:51.427Z,9.43
2022-10-29T03:18:18.093Z,9.35
2022-10-29T03:20:44.920Z,9.10
2022-10-29T03:23:12.572Z,8.65
2022-10-29T03:25:39.748Z,9.35
2022-10-29T03:28:09.037Z,9.05
2022-10-29T03:30:36.896Z,8.95
2022-10-29T03:33:05.931Z,9.45
2022-10-29T03:35:32.583Z,9.18
2022-10-29T03:38:02.139Z,9.90
2022-10-29T03:40:28.888Z,9.40
2022-10-29T03:42:57.432Z,9.73
2022-10-29T03:45:26.028Z,9.80
2022-10-29T03:47:53.915Z,9.77
2022-10-29T03:50:23.029Z,10.05
2022-10-29T03:52:49.733Z,9.98
2022-10-29T03:55:16.560Z,9.80
2022-10-29T03:57:43.228Z,9.93
2022-10-29T04:00:10.468Z,10.18
2022-10-29T04:02:37.213Z,10.38
2022-10-29T04:05:04.087Z,10.38
2022-10-29T04:07:30.746Z,10.02
2022-10-29T04:09:57.407Z,10.25
2022-10-29T04:12:24.108Z,9.88
2022-10-29T04:17:18.306Z,10.18
2022-10-29T04:19:44.938Z,10.15
2022-10-29T04:28:41.428Z,10.32
2022-10-29T04:30:32.605Z,10.75
2022-10-29T04:33:00.400Z,10.75
2022-10-29T04:35:28.623Z,10.80
2022-10-29T04:37:55.560Z,10.38
2022-10-29T04:40:23.660Z,10.88
2022-10-29T04:42:50.910Z,11.07
2022-10-29T04:45:17.852Z,10.90
2022-10-29T04:47:44.837Z,11.25
2022-10-29T04:50:11.564Z,10.65
2022-10-29T04:52:38.182Z,10.93
2022-10-29T04:55:05.404Z,9.88
2022-10-29T04:57:32.195Z,10.63
2022-10-29T04:59:58.850Z,11.18
2022-10-29T05:02:25.858Z,10.23
2022-10-29T05:04:52.521Z,11.90
2022-10-29T05:07:19.169Z,11.13
2022-10-29T05:09:45.863Z,11.95
2022-10-29T05:12:12.533Z,11.93
2022-10-29T05:14:40.679Z,11.77
2022-10-29T05:17:25.662Z,12.00
2022-10-29T05:19:53.427Z,12.68
2022-10-29T05:25:06.382Z,11.63
2022-10-29T05:27:33.039Z,11.27
2022-10-29T05:30:02.925Z,11.57
2022-10-29T05:32:30.795Z,11.38
2022-10-29T05:34:58.766Z,11.05
2022-10-29T05:37:26.914Z,11.88
2022-10-29T05:39:54.557Z,11.25
2022-10-29T05:42:21.346Z,10.65
2022-10-29T05:44:48.079Z,10.98
2022-10-29T05:47:18.243Z,10.75
2022-10-29T05:49:54.747Z,11.43
2022-10-29T05:52:23.266Z,10.93
2022-10-29T05:54:52.016Z,11.52
2022-10-29T05:57:20.019Z,11.40
2022-10-29T05:59:48.063Z,11.75
2022-10-29T06:02:16.186Z,11.60
2022-10-29T06:04:44.704Z,11.25
2022-10-29T06:07:11.872Z,11.57
2022-10-29T06:09:39.894Z,11.73
2022-10-29T06:12:07.171Z,12.38
2022-10-29T06:14:38.906Z,11.93
2022-10-29T06:17:07.820Z,12.07
2022-10-29T06:19:34.917Z,11.48
2022-10-29T06:22:05.248Z,11.43
2022-10-29T06:24:33.794Z,12.32
2022-10-29T06:27:03.901Z,11.60
2022-10-29T06:29:31.767Z,12.38
2022-10-29T06:31:59.880Z,11.88
2022-10-29T06:34:30.651Z,11.02
2022-10-29T06:37:00.604Z,11.75
2022-10-29T06:39:27.319Z,12.15
2022-10-29T06:41:54.079Z,12.00
2022-10-29T06:44:20.789Z,11.40
2022-10-29T06:46:47.575Z,12.00
2022-10-29T06:49:18.375Z,11.75
2022-10-29T06:51:45.140Z,12.45
2022-10-29T06:54:11.917Z,12.48
2022-10-29T06:56:38.919Z,12.02
2022-10-29T06:59:05.721Z,11.57
2022-10-29T07:01:32.823Z,11.70
2022-10-29T07:04:00.458Z,12.80
2022-10-29T07:06:27.707Z,12.95
2022-10-29T07:08:54.468Z,12.35
2022-10-29T07:11:21.131Z,10.77
2022-10-29T07:13:47.838Z,12.15
2022-10-29T07:16:14.514Z,12.35
2022-10-29T07:18:41.304Z,11.57
2022-10-29T07:21:08.151Z,12.15
2022-10-29T07:23:35.154Z,12.90
2022-10-29T07:26:02.832Z,11.95
2022-10-29T07:28:29.785Z,11.88
2022-10-29T07:31:01.448Z,12.57
2022-10-29T07:33:29.815Z,11.20
2022-10-29T07:35:59.029Z,11.45
2022-10-29T07:38:26.907Z,12.10
2022-10-29T07:40:54.226Z,11.68
2022-10-29T07:43:22.691Z,12.75
2022-10-29T07:45:50.933Z,11.73
2022-10-29T07:48:19.494Z,11.63
2022-10-29T07:50:46.844Z,12.20
2022-10-29T07:53:15.429Z,11.73
2022-10-29T07:55:43.252Z,11.43
2022-10-29T07:58:12.467Z,12.02
2022-10-29T08:00:48.513Z,11.70
2022-10-29T08:03:17.274Z,11.48
2022-10-29T08:05:44.599Z,11.48
2022-10-29T08:08:11.806Z,11.48
2022-10-29T08:10:38.678Z,11.02
2022-10-29T08:13:06.780Z,10.52
2022-10-29T08:15:34.621Z,11.30
2022-10-29T08:18:01.941Z,11.63
2022-10-29T08:20:30.623Z,11.35
2022-10-29T08:23:00.061Z,11.43
2022-10-29T08:25:27.221Z,11.02
2022-10-29T08:28:02.283Z,11.82
2022-10-29T08:30:29.895Z,11.63
2022-10-29T08:32:56.935Z,11.00
2022-10-29T08:35:24.022Z,11.45
2022-10-29T08:37:50.766Z,11.50
2022-10-29T08:40:24.799Z,10.63
2022-10-29T08:43:01.310Z,11.18
2022-10-29T08:45:47.690Z,11.52
2022-10-29T08:48:30.942Z,11.50
2022-10-29T08:51:16.423Z,11.18
2022-10-29T08:54:03.997Z,11.75
2022-10-29T08:56:38.969Z,11.95
2022-10-29T08:59:17.355Z,11.98
2022-10-29T09:01:45.171Z,12.32
2022-10-29T09:04:36.035Z,12.82
2022-10-29T09:07:57.135Z,13.18
2022-10-29T09:10:36.658Z,13.23
2022-10-29T09:13:11.823Z,12.38
2022-10-29T09:16:02.622Z,14.05
2022-10-29T09:19:19.495Z,13.20
2022-10-29T09:22:21.303Z,13.43
2022-10-29T09:25:02.895Z,12.30
2022-10-29T09:27:56.066Z,12.77
2022-10-29T09:30:23.170Z,12.75
2022-10-29T09:33:08.733Z,11.85
2022-10-29T09:35:39.942Z,12.85
2022-10-29T09:38:18.490Z,12.27
2022-10-29T09:40:45.369Z,12.00
2022-10-29T09:43:45.922Z,11.20
2022-10-29T09:46:21.479Z,12.00
2022-10-29T09:49:11.513Z,11.80
2022-10-29T09:52:08.871Z,11.07
2022-10-29T09:54:37.161Z,11.25
2022-10-29T09:57:05.625Z,11.30
2022-10-29T10:02:50.376Z,10.38
2022-10-29T10:05:31.336Z,10.13
2022-10-29T10:08:12.873Z,11.13
2022-10-29T10:10:51.391Z,11.38
2022-10-29T10:13:20.672Z,11.18
2022-10-29T10:15:58.784Z,10.18
2022-10-29T10:18:33.295Z,9.82
2022-10-29T10:21:13.841Z,10.35
2022-10-29T10:23:43.525Z,10.40
2022-10-29T10:26:42.896Z,9.38
2022-10-29T10:29:29.474Z,10.10
2022-10-29T10:31:56.242Z,10.15
2022-10-29T10:34:24.447Z,10.85
2022-10-29T10:36:57.631Z,10.20
2022-10-29T10:39:37.786Z,10.25
2022-10-29T10:42:16.895Z,10.23
2022-10-29T10:44:52.837Z,9.98
2022-10-29T10:47:22.145Z,10.55
2022-10-29T10:49:50.021Z,9.80
2022-10-29T10:52:31.510Z,10.02
2022-10-29T10:55:07.058Z,10.32
2022-10-29T10:57:40.628Z,10.05
2022-10-29T11:00:20.340Z,10.07
2022-10-29T11:03:17.694Z,10.02
2022-10-29T11:06:06.699Z,10.15
2022-10-29T11:08:38.250Z,10.25
2022-10-29T11:11:13.320Z,10.60
2022-10-29T11:13:41.348Z,9.75
2022-10-29T11:16:22.515Z,10.52
2022-10-29T11:19:00.957Z,10.70
2022-10-29T11:21:46.237Z,9.80
2022-10-29T11:24:18.487Z,9.70
2022-10-29T11:26:55.072Z,9.20
2022-10-29T11:29:48.971Z,9.27
2022-10-29T11:32:38.753Z,9.55
2022-10-29T11:35:13.327Z,9.88
2022-10-29T11:37:58.938Z,9.77
2022-10-29T11:41:00.701Z,9.10
2022-10-29T11:43:27.453Z,8.27
2022-10-29T11:46:09.533Z,8.90
2022-10-29T11:49:01.134Z,8.88
2022-10-29T11:51:30.692Z,8.85
2022-10-29T11:54:15.535Z,8.88
2022-10-29T11:56:53.210Z,8.73
2022-10-29T11:59:51.893Z,9.57
2022-10-29T12:02:30.822Z,9.05
2022-10-29T12:05:22.051Z,9.32
2022-10-29T12:08:09.482Z,9.35
2022-10-29T12:10:45.221Z,8.52
2022-10-29T12:13:25.075Z,9.05
2022-10-29T12:16:11.391Z,9.35
2022-10-29T12:18:45.429Z,9.05
2022-10-29T12:21:19.798Z,8.20
2022-10-29T12:24:05.311Z,8.60
2022-10-29T12:26:43.791Z,9.27
2022-10-29T12:29:22.825Z,8.70
2022-10-29T12:32:08.975Z,8.88
2022-10-29T12:34:45.148Z,8.93
2022-10-29T12:37:40.759Z,7.95
2022-10-29T12:40:38.427Z,9.60
2022-10-29T12:43:11.794Z,9.13
2022-10-29T12:46:14.792Z,9.55
2022-10-29T12:48:59.141Z,8.70
2022-10-29T12:51:45.721Z,8.75
2022-10-29T12:54:26.913Z,8.43
2022-10-29T12:56:53.865Z,9.18
2022-10-29T12:59:23.562Z,9.27
2022-10-29T13:02:11.694Z,8.68
2022-10-29T13:04:38.535Z,9.88
2022-10-29T13:09:48.694Z,10.32
2022-10-29T13:12:55.508Z,9.90
2022-10-29T13:17:53.922Z,11.57
2022-10-29T13:20:56.979Z,9.30
2022-10-29T13:23:23.641Z,9.95
2022-10-29T13:25:57.433Z,8.75
2022-10-29T13:28:24.015Z,9.43
2022-10-29T13:30:53.192Z,8.93
2022-10-29T13:33:29.174Z,9.65
2022-10-29T13:36:17.131Z,8.85
2022-10-29T13:39:04.361Z,9.00
2022-10-29T13:41:41.654Z,8.48
2022-10-29T13:44:21.557Z,9.27
2022-10-29T13:47:01.258Z,9.05
2022-10-29T13:49:27.986Z,10.15
2022-10-29T13:52:06.526Z,9.38
2022-10-29T13:54:46.177Z,9.05
2022-10-29T13:57:26.041Z,9.00
2022-10-29T14:00:19.693Z,9.75
2022-10-29T14:03:02.051Z,11.02
2022-10-29T14:05:38.987Z,9.93
2022-10-29T14:08:24.927Z,9.63
2022-10-29T14:13:35.926Z,8.75
2022-10-29T14:16:05.643Z,9.73
2022-10-29T14:18:46.809Z,9.57
2022-10-29T14:21:25.468Z,10.32
2022-10-29T14:24:06.683Z,11.40
2022-10-29T14:26:35.844Z,11.23
2022-10-29T14:29:25.402Z,10.35
2022-10-29T14:32:11.977Z,11.35
2022-10-29T14:34:38.804Z,11.27
2022-10-29T14:37:16.009Z,10.68
2022-10-29T14:39:57.883Z,10.65
2022-10-29T14:42:35.067Z,11.18
2022-10-29T14:45:26.477Z,12.68
2022-10-29T14:47:58.992Z,12.45
2022-10-29T14:50:28.136Z,12.07
2022-10-29T14:53:01.229Z,12.23
2022-10-29T14:55:34.333Z,13.02
2022-10-29T14:58:09.957Z,13.20
2022-10-29T15:03:06.595Z,12.10
2022-10-29T15:05:36.220Z,13.18
2022-10-29T15:08:16.110Z,11.43
2022-10-29T15:10:54.348Z,13.55
2022-10-29T15:13:31.947Z,14.35
2022-10-29T15:16:04.545Z,15.38
2022-10-29T15:18:33.145Z,14.45
2022-10-29T15:21:01.262Z,15.38
2022-10-29T15:23:43.410Z,14.95
2022-10-29T15:26:17.106Z,13.95
2022-10-29T15:28:46.463Z,12.57
2022-10-29T15:31:42.727Z,12.98
2022-10-29T15:34:15.131Z,13.15
2022-10-29T15:37:20.191Z,12.95
2022-10-29T15:39:56.166Z,13.63
2022-10-29T15:42:28.384Z,14.02
2022-10-29T15:48:06.561Z,14.75
2022-10-29T15:50:39.746Z,14.52
2022-10-29T15:53:11.645Z,16.58
2022-10-29T15:55:38.454Z,16.85
2022-10-29T15:58:11.904Z,16.20
2022-10-29T16:00:38.696Z,14.30
2022-10-29T16:03:18.589Z,14.20
2022-10-29T16:05:48.823Z,15.50
2022-10-29T16:08:32.840Z,14.70
2022-10-29T16:11:01.631Z,14.43
2022-10-29T16:13:30.052Z,14.70
2022-10-29T16:15:57.006Z,14.85
2022-10-29T16:18:24.247Z,15.30
2022-10-29T16:23:39.197Z,16.17
2022-10-29T16:26:05.880Z,17.90
2022-10-29T16:28:33.707Z,16.92
2022-10-29T16:31:00.627Z,17.70
2022-10-29T16:33:27.725Z,17.60
2022-10-29T16:35:54.422Z,18.15
2022-10-29T16:38:21.013Z,17.75
2022-10-29T16:40:47.734Z,17.85
2022-10-29T16:43:14.480Z,17.23
2022-10-29T16:45:41.304Z,19.85
2022-10-29T16:48:11.042Z,22.90
2022-10-29T16:50:37.775Z,19.10
2022-10-29T16:53:07.769Z,18.95
2022-10-29T16:55:37.318Z,19.55
2022-10-29T16:58:07.280Z,19.63
2022-10-29T17:00:34.198Z,19.33
2022-10-29T17:03:04.941Z,20.15
2022-10-29T17:05:42.913Z,19.77
2022-10-29T17:08:10.600Z,19.95
2022-10-29T17:10:37.396Z,21.08
2022-10-29T17:13:04.549Z,20.45
2022-10-29T17:15:31.208Z,23.25
2022-10-29T17:18:27.590Z,21.98
2022-10-29T17:21:04.087Z,26.73
2022-10-29T17:23:35.164Z,24.90
2022-10-29T17:26:02.903Z,22.73
2022-10-29T17:28:29.686Z,21.73
2022-10-29T17:30:57.265Z,22.10
2022-10-29T17:33:25.246Z,20.45
2022-10-29T17:36:10.261Z,20.85
2022-10-29T17:38:39.626Z,22.33
2022-10-29T17:41:09.639Z,22.35
2022-10-29T17:43:39.517Z,22.75
2022-10-29T17:46:08.014Z,23.85
2022-10-29T17:48:37.213Z,22.08
2022-10-29T17:51:04.221Z,22.30
2022-10-29T17:53:46.630Z,22.13
2022-10-29T17:56:13.374Z,20.75
2022-10-29T17:58:54.024Z,27.25
2022-10-29T18:01:24.085Z,23.25
2022-10-29T18:03:50.890Z,25.42
2022-10-29T18:06:18.689Z,25.80
2022-10-29T18:08:49.291Z,24.70
2022-10-29T18:11:20.520Z,25.27
2022-10-29T18:13:50.746Z,24.58
2022-10-29T18:16:24.746Z,23.15
2022-10-29T18:19:01.685Z,24.10
2022-10-29T18:21:29.975Z,25.08
2022-10-29T18:26:55.708Z,23.17
2022-10-29T18:29:26.933Z,28.48
2022-10-29T18:31:55.914Z,23.17
2022-10-29T18:34:22.930Z,22.65
2022-10-29T18:36:49.688Z,24.05
2022-10-29T18:39:19.869Z,24.92
2022-10-29T18:42:04.489Z,24.27
2022-10-29T18:44:31.393Z,25.30
2022-10-29T18:46:58.286Z,25.70
2022-10-29T18:49:25.061Z,24.20
2022-10-29T18:51:53.355Z,34.08
2022-10-29T18:54:20.253Z,35.00
2022-10-29T18:56:47.290Z,27.27
2022-10-29T18:59:15.493Z,24.23
2022-10-29T19:01:42.403Z,24.15
2022-10-29T19:04:13.796Z,24.23
2022-10-29T19:06:40.698Z,25.27
2022-10-29T19:09:09.821Z,26.10
2022-10-29T19:11:37.070Z,27.38
2022-10-29T19:14:06.655Z,26.70
2022-10-29T19:16:34.137Z,28.08
2022-10-29T19:19:17.234Z,26.38
2022-10-29T19:21:54.512Z,26.33
2022-10-29T19:24:41.984Z,25.20
2022-10-29T19:27:13.664Z,25.35
2022-10-29T19:29:54.227Z,25.35
2022-10-29T19:32:33.180Z,27.58
2022-10-29T19:35:00.180Z,27.00
2022-10-29T19:37:27.095Z,26.98
2022-10-29T19:40:02.780Z,25.85
2022-10-29T19:42:37.596Z,26.90
2022-10-29T19:45:10.559Z,25.63
2022-10-29T19:47:39.541Z,25.83
2022-10-29T19:50:10.072Z,26.05
2022-10-29T19:52:39.107Z,25.20
2022-10-29T19:55:12.098Z,26.02
2022-10-29T19:57:42.062Z,27.27
2022-10-29T20:00:16.543Z,25.70
2022-10-29T20:02:44.875Z,25.02
2022-10-29T20:05:15.138Z,25.52
2022-10-29T20:07:42.193Z,25.30
2022-10-29T20:10:08.955Z,24.98
2022-10-29T20:12:44.689Z,26.08
2022-10-29T20:17:41.361Z,27.70
2022-10-29T20:20:11.596Z,24.02
2022-10-29T20:22:43.101Z,25.65
2022-10-29T20:25:10.272Z,31.17
2022-10-29T20:27:37.357Z,25.52
2022-10-29T20:30:05.400Z,28.15
2022-10-29T20:32:32.655Z,30.27
2022-10-29T20:34:59.507Z,35.80
2022-10-29T20:37:26.562Z,30.05
2022-10-29T20:39:53.538Z,31.23
2022-10-29T20:42:20.195Z,31.67
2022-10-29T20:44:46.924Z,30.02
2022-10-29T20:47:13.634Z,27.02
2022-10-29T20:49:40.537Z,29.27
2022-10-29T20:52:07.339Z,30.50
2022-10-29T20:54:34.179Z,28.35
2022-10-29T20:57:00.857Z,27.50
2022-10-29T20:59:27.724Z,29.88
2022-10-29T21:01:56.840Z,30.65
2022-10-29T21:04:23.911Z,29.20
2022-10-29T21:06:50.745Z,28.10
2022-10-29T21:09:17.514Z,28.05
2022-10-29T21:11:44.232Z,28.30
2022-10-29T21:14:10.882Z,28.50
2022-10-29T21:16:37.584Z,28.45
2022-10-29T21:19:05.859Z,28.23
2022-10-29T21:21:32.700Z,27.35
2022-10-29T21:23:59.988Z,27.50
2022-10-29T21:26:27.923Z,28.10
2022-10-29T21:28:54.904Z,27.45
2022-10-29T21:31:31.323Z,27.10
2022-10-29T21:33:58.041Z,27.83
2022-10-29T21:36:24.792Z,28.88
2022-10-29T21:38:53.915Z,28.25
2022-10-29T21:41:20.661Z,28.98
2022-10-29T21:43:47.538Z,30.10
2022-10-29T21:46:14.354Z,30.25
2022-10-29T21:48:41.055Z,29.38
2022-10-29T21:51:11.216Z,29.52
2022-10-29T21:53:38.101Z,29.35
2022-10-29T21:56:07.053Z,29.58
2022-10-29T21:58:34.202Z,31.13
2022-10-29T22:01:07.163Z,30.33
2022-10-29T22:03:35.211Z,30.15
2022-10-29T22:06:11.133Z,30.10
2022-10-29T22:08:38.497Z,28.65
2022-10-29T22:11:05.680Z,28.45
2022-10-29T22:13:33.794Z,28.70
2022-10-29T22:16:01.446Z,28.05
2022-10-29T22:18:28.500Z,28.65
2022-10-29T22:24:03.421Z,32.28
2022-10-29T22:26:30.428Z,33.40
2022-10-29T22:28:57.305Z,31.77
2022-10-29T22:34:15.973Z,30.60
2022-10-29T22:36:42.811Z,30.83
2022-10-29T22:39:09.908Z,30.92
2022-10-29T22:41:36.717Z,30.98
2022-10-29T22:44:05.581Z,30.05
2022-10-29T22:46:32.420Z,30.35
2022-10-29T22:48:59.575Z,28.70
2022-10-29T22:51:27.730Z,30.25
2022-10-29T22:53:54.613Z,30.98
2022-10-29T22:56:23.854Z,30.65
2022-10-29T22:58:51.196Z,31.02
2022-10-29T23:01:21.891Z,31.27
2022-10-29T23:03:49.268Z,30.27
2022-10-29T23:06:18.538Z,31.67
2022-10-29T23:08:46.136Z,31.38
2022-10-29T23:11:23.475Z,31.67
2022-10-29T23:13:52.170Z,31.98
2022-10-29T23:16:19.815Z,31.55
2022-10-29T23:18:50.843Z,32.47
2022-10-29T23:21:18.216Z,34.72
2022-10-29T23:23:45.450Z,33.00
2022-10-29T23:26:13.126Z,35.92
2022-10-29T23:28:40.537Z,32.65
2022-10-29T23:31:11.482Z,32.22
2022-10-29T23:33:38.371Z,31.92
2022-10-29T23:36:07.482Z,30.80
2022-10-29T23:38:34.860Z,31.55
2022-10-29T23:41:02.263Z,31.52
2022-10-29T23:43:29.043Z,31.75
2022-10-29T23:45:56.502Z,31.85
2022-10-29T23:48:23.928Z,30.17
2022-10-29T23:50:51.231Z,30.42
2022-10-29T23:53:18.474Z,31.70
2022-10-29T23:55:45.846Z,31.67
2022-10-29T23:58:13.883Z,30.15
